Containerships 6 — DABH — position and weather

sailwx.info

Track history (hours):
 
Tides and Currents Weather Stations Pressure Air Temp Water Temp Dewpoint Dewpoint Depression Visibility Wind Speed Wind Dir Waves Ship Positions

Containerships 6

Last reported at 2016-Feb-13 16:24 UTC. Time now 2016-Feb-14 12:44 UTC.
Position N 59°41' E 023°45'.

Length 155 m; beam 21.8 m; draft 8.9 m.

Type: Ship (hazmat cat A). MMSI: 211315096.

Date/timePositionNaut miles runAvg speedWind from/ knotsBaromVisibWave heightAir tempDewpointWater temp
2016-Feb-13 16:24N 59°41' E 023°45'2019.1
2016-Feb-13 15:21N 59°47' E 024°24'58 4.5
2016-Feb-13 02:32N 60°00' E 026°15'2019.9
2016-Feb-13 01:33N 60°00' E 026°55'2018.9
2016-Feb-13 00:31N 60°07' E 027°31'1818.4
2016-Feb-12 23:33N 60°09' E 028°07'2019.7
2016-Feb-12 22:34N 60°03' E 028°44'30 4.9
2016-Feb-12 16:27N 60°00' E 029°43'0 0.0
2016-Feb-12 13:31N 60°00' E 029°43'0 0.0
2016-Feb-12 11:32N 60°00' E 029°43'0 0.0
2016-Feb-12 09:28N 60°00' E 029°43'1910.2
2016-Feb-12 07:33N 60°02' E 029°04'1918.9
2016-Feb-12 06:33N 60°03' E 028°27'1818.5
2016-Feb-12 05:33N 60°10' E 027°53'1818.4
2016-Feb-12 04:33N 60°03' E 027°19'1817.7
2016-Feb-12 03:33N 59°59' E 026°44'60 4.9
2016-Feb-11 15:11N 59°47' E 024°46'1218.9
2016-Feb-11 14:34N 59°44' E 024°24'2319.2
2016-Feb-11 13:22N 59°37' E 023°41'35418.6
2016-Feb-10 18:17N 55°39' E 015°31'811.3
2016-Feb-10 17:33N 55°36' E 015°18'1918.8
2016-Feb-10 16:34N 55°27' E 014°49'1818.2
2016-Feb-10 15:34N 55°13' E 014°27'1818.0
2016-Feb-10 14:33N 55°01' E 014°05'1918.7
2016-Feb-10 13:33N 54°55' E 013°33'2418.8
2016-Feb-10 12:18N 54°48' E 012°55'1418.4
2016-Feb-10 11:34N 54°42' E 012°33'1817.9
2016-Feb-10 10:33N 54°28' E 012°13'1717.4
2016-Feb-10 09:33N 54°25' E 011°44'1818.5
2016-Feb-10 08:34N 54°33' E 011°15'1918.5
2016-Feb-10 07:34N 54°34' E 010°44'1816.4
2016-Feb-10 06:26N 54°27' E 010°15'6 6.9
2016-Feb-10 05:33N 54°22' E 010°08'6 5.6
2016-Feb-10 04:33N 54°21' E 009°59'8 7.7
2016-Feb-10 03:33N 54°21' E 009°46'8 5.9
2016-Feb-10 02:17N 54°15' E 009°37'20 6.4
2016-Feb-09 23:11N 53°59' E 009°17'3 5.2
2016-Feb-09 22:32N 53°57' E 009°14'4 4.3
2016-Feb-09 21:33N 53°54' E 009°09'1 1.3
2016-Feb-09 20:33N 53°53' E 009°07'4 4.3
2016-Feb-09 19:33N 53°51' E 009°00'1111.0
2016-Feb-09 18:33N 53°54' E 008°42'1413.7
2016-Feb-09 17:33N 53°59' E 008°21'1615.8
2016-Feb-09 16:34N 53°58' E 007°54'1817.9
2016-Feb-09 15:34N 53°54' E 007°24'1717.3
2016-Feb-09 14:33N 53°50' E 006°56'1717.4
2016-Feb-09 13:33N 53°46' E 006°27'1817.9
2016-Feb-09 12:33N 53°40' E 005°59'1818.2
2016-Feb-09 11:34N 53°34' E 005°30'1818.2
2016-Feb-09 10:33N 53°28' E 005°00'2417.3
2016-Feb-09 09:11N 53°12' E 004°32'1118.2
2016-Feb-09 08:34N 53°02' E 004°23'1817.8
2016-Feb-09 07:33N 52°46' E 004°10'1817.8
2016-Feb-09 06:31N 52°30' E 003°55'1718.0
2016-Feb-09 05:34N 52°13' E 003°53'1716.6
2016-Feb-09 04:33N 51°58' E 004°08'10 9.9
2016-Feb-09 03:33N 51°54' E 004°22'2 2.3
2016-Feb-09 02:33N 51°53' E 004°25'0 0.0
2016-Feb-09 01:33N 51°53' E 004°25'0 0.0
2016-Feb-09 00:33N 51°53' E 004°25'0 0.0
2016-Feb-08 23:33N 51°53' E 004°25'0 0.0
2016-Feb-08 22:33N 51°53' E 004°25'0 0.0
2016-Feb-08 21:33N 51°53' E 004°25'0 0.0
2016-Feb-08 20:33N 51°53' E 004°25'0 0.0
2016-Feb-08 19:33N 51°53' E 004°25'0 0.0
2016-Feb-08 18:33N 51°53' E 004°25'0 0.0
2016-Feb-08 17:33N 51°53' E 004°25'0 0.0
2016-Feb-08 16:33N 51°53' E 004°25'0 0.0
2016-Feb-08 15:33N 51°53' E 004°25'0 0.0
2016-Feb-08 14:33N 51°53' E 004°25'0 0.0
2016-Feb-08 13:33N 51°53' E 004°25'0 0.0
2016-Feb-08 12:33N 51°53' E 004°25'0 0.0
2016-Feb-08 11:33N 51°53' E 004°25'0 0.0
2016-Feb-08 10:33N 51°53' E 004°25'0 0.0
2016-Feb-08 09:33N 51°53' E 004°25'0 0.0
2016-Feb-08 08:33N 51°53' E 004°25'0 0.0
2016-Feb-08 07:33N 51°53' E 004°25'0 0.0
2016-Feb-08 06:33N 51°53' E 004°25'0 0.0
2016-Feb-08 05:33N 51°53' E 004°25'0 0.0
2016-Feb-08 04:33N 51°53' E 004°25'0 0.0
2016-Feb-08 03:33N 51°53' E 004°25'0 0.0
2016-Feb-08 02:33N 51°53' E 004°25'0 0.0
2016-Feb-08 01:33N 51°53' E 004°25'0 0.0
2016-Feb-08 00:33N 51°53' E 004°25'0 0.0
2016-Feb-07 23:33N 51°53' E 004°25'0 0.0
2016-Feb-07 22:33N 51°53' E 004°25'5 4.7
2016-Feb-07 21:33N 51°54' E 004°18'1010.4
2016-Feb-07 20:33N 51°59' E 004°03'1413.6
2016-Feb-07 19:33N 52°03' E 003°42'6018.5
2016-Feb-07 16:20N 52°36' E 002°21'1518.7
2016-Feb-07 15:33N 52°45' E 002°01'1818.0
2016-Feb-07 14:33N 52°56' E 001°37'1717.2
2016-Feb-07 13:33N 53°09' E 001°20'1717.0
2016-Feb-07 12:33N 53°24' E 001°05'3617.0
2016-Feb-07 10:24N 53°54' E 000°29'1517.5
2016-Feb-07 09:34N 54°04' E 000°12'1717.3
2016-Feb-07 08:33N 54°17' W 000°08'1817.6
2016-Feb-07 07:33N 54°30' W 000°28'1918.1
2016-Feb-07 06:31N 54°39' W 000°57'8 7.8
2016-Feb-07 05:33N 54°36' W 001°09'0 0.0
2016-Feb-07 04:33N 54°36' W 001°09'0 0.0
2016-Feb-07 03:33N 54°36' W 001°09'0 0.0
2016-Feb-07 02:33N 54°36' W 001°09'0 0.0
2016-Feb-07 01:33N 54°36' W 001°09'0 0.0
2016-Feb-07 00:33N 54°36' W 001°09'0 0.0
2016-Feb-06 23:33N 54°36' W 001°09'0 0.0
2016-Feb-06 22:33N 54°36' W 001°09'0 0.0
2016-Feb-06 21:33N 54°36' W 001°09'0 0.0
2016-Feb-06 20:33N 54°36' W 001°09'0 0.0
2016-Feb-06 19:33N 54°36' W 001°09'0 0.0
2016-Feb-06 18:31N 54°36' W 001°09'0 0.0
2016-Feb-06 17:33N 54°36' W 001°09'0 0.0
2016-Feb-06 16:32N 54°36' W 001°09'0 0.0
2016-Feb-06 15:33N 54°36' W 001°09'0 0.0
2016-Feb-06 14:33N 54°36' W 001°09'0 0.1
2016-Feb-06 13:33N 54°36' W 001°09'1010.0
2016-Feb-06 12:33N 54°44' W 000°58'1818.4
2016-Feb-06 11:33N 54°52' W 000°29'40217.3
2016-Feb-05 12:20N 57°47' E 010°22'1417.6
2016-Feb-05 11:33N 57°48' E 010°48'1918.8
2016-Feb-05 10:33N 57°35' E 011°13'1818.5
2016-Feb-05 09:33N 57°20' E 011°32'1818.4
2016-Feb-05 08:33N 57°02' E 011°43'1818.2
2016-Feb-05 07:33N 56°45' E 011°54'8916.6
2016-Feb-05 02:13N 55°21' E 011°02'1116.2
2016-Feb-05 01:33N 55°11' E 011°04'1616.5
2016-Feb-05 00:33N 54°55' E 010°54'1414.5
2016-Feb-04 23:33N 54°41' E 010°57'1717.4
2016-Feb-04 22:33N 54°33' E 011°23'1717.2
2016-Feb-04 21:33N 54°26' E 011°51'1514.9
2016-Feb-04 20:33N 54°33' E 012°13'5517.8
2016-Feb-04 17:28N 54°59' E 013°37'1718.3
2016-Feb-04 16:33N 55°05' E 014°04'1817.9
2016-Feb-04 15:33N 55°18' E 014°26'1717.5
2016-Feb-04 14:33N 55°28' E 014°51'1817.9
2016-Feb-04 13:33N 55°28' E 015°23'  
Track history (hours):
 
Tides and Currents Weather Stations Pressure Air Temp Water Temp Dewpoint Dewpoint Depression Visibility Wind Speed Wind Dir Waves Ship Positions

Containerships 6

Last reported at 2016-Feb-13 16:24 UTC. Time now 2016-Feb-14 12:44 UTC.
Position N 59°41' E 023°45'.

Length 155 m; beam 21.8 m; draft 8.9 m.

Type: Ship (hazmat cat A). MMSI: 211315096.

Date/timePositionNaut miles runAvg speedWind from/ knotsBaromVisibWave heightAir tempDewpointWater temp
2016-Feb-13 16:24N 59°41' E 023°45'2019.1
2016-Feb-13 15:21N 59°47' E 024°24'58 4.5
2016-Feb-13 02:32N 60°00' E 026°15'2019.9
2016-Feb-13 01:33N 60°00' E 026°55'2018.9
2016-Feb-13 00:31N 60°07' E 027°31'1818.4
2016-Feb-12 23:33N 60°09' E 028°07'2019.7
2016-Feb-12 22:34N 60°03' E 028°44'30 4.9
2016-Feb-12 16:27N 60°00' E 029°43'0 0.0
2016-Feb-12 13:31N 60°00' E 029°43'0 0.0
2016-Feb-12 11:32N 60°00' E 029°43'0 0.0
2016-Feb-12 09:28N 60°00' E 029°43'1910.2
2016-Feb-12 07:33N 60°02' E 029°04'1918.9
2016-Feb-12 06:33N 60°03' E 028°27'1818.5
2016-Feb-12 05:33N 60°10' E 027°53'1818.4
2016-Feb-12 04:33N 60°03' E 027°19'1817.7
2016-Feb-12 03:33N 59°59' E 026°44'60 4.9
2016-Feb-11 15:11N 59°47' E 024°46'1218.9
2016-Feb-11 14:34N 59°44' E 024°24'2319.2
2016-Feb-11 13:22N 59°37' E 023°41'35418.6
2016-Feb-10 18:17N 55°39' E 015°31'811.3
2016-Feb-10 17:33N 55°36' E 015°18'1918.8
2016-Feb-10 16:34N 55°27' E 014°49'1818.2
2016-Feb-10 15:34N 55°13' E 014°27'1818.0
2016-Feb-10 14:33N 55°01' E 014°05'1918.7
2016-Feb-10 13:33N 54°55' E 013°33'2418.8
2016-Feb-10 12:18N 54°48' E 012°55'1418.4
2016-Feb-10 11:34N 54°42' E 012°33'1817.9
2016-Feb-10 10:33N 54°28' E 012°13'1717.4
2016-Feb-10 09:33N 54°25' E 011°44'1818.5
2016-Feb-10 08:34N 54°33' E 011°15'1918.5
2016-Feb-10 07:34N 54°34' E 010°44'1816.4
2016-Feb-10 06:26N 54°27' E 010°15'6 6.9
2016-Feb-10 05:33N 54°22' E 010°08'6 5.6
2016-Feb-10 04:33N 54°21' E 009°59'8 7.7
2016-Feb-10 03:33N 54°21' E 009°46'8 5.9
2016-Feb-10 02:17N 54°15' E 009°37'20 6.4
2016-Feb-09 23:11N 53°59' E 009°17'3 5.2
2016-Feb-09 22:32N 53°57' E 009°14'4 4.3
2016-Feb-09 21:33N 53°54' E 009°09'1 1.3
2016-Feb-09 20:33N 53°53' E 009°07'4 4.3
2016-Feb-09 19:33N 53°51' E 009°00'1111.0
2016-Feb-09 18:33N 53°54' E 008°42'1413.7
2016-Feb-09 17:33N 53°59' E 008°21'1615.8
2016-Feb-09 16:34N 53°58' E 007°54'1817.9
2016-Feb-09 15:34N 53°54' E 007°24'1717.3
2016-Feb-09 14:33N 53°50' E 006°56'1717.4
2016-Feb-09 13:33N 53°46' E 006°27'1817.9
2016-Feb-09 12:33N 53°40' E 005°59'1818.2
2016-Feb-09 11:34N 53°34' E 005°30'1818.2
2016-Feb-09 10:33N 53°28' E 005°00'2417.3
2016-Feb-09 09:11N 53°12' E 004°32'1118.2
2016-Feb-09 08:34N 53°02' E 004°23'1817.8
2016-Feb-09 07:33N 52°46' E 004°10'1817.8
2016-Feb-09 06:31N 52°30' E 003°55'1718.0
2016-Feb-09 05:34N 52°13' E 003°53'1716.6
2016-Feb-09 04:33N 51°58' E 004°08'10 9.9
2016-Feb-09 03:33N 51°54' E 004°22'2 2.3
2016-Feb-09 02:33N 51°53' E 004°25'0 0.0
2016-Feb-09 01:33N 51°53' E 004°25'0 0.0
2016-Feb-09 00:33N 51°53' E 004°25'0 0.0
2016-Feb-08 23:33N 51°53' E 004°25'0 0.0
2016-Feb-08 22:33N 51°53' E 004°25'0 0.0
2016-Feb-08 21:33N 51°53' E 004°25'0 0.0
2016-Feb-08 20:33N 51°53' E 004°25'0 0.0
2016-Feb-08 19:33N 51°53' E 004°25'0 0.0
2016-Feb-08 18:33N 51°53' E 004°25'0 0.0
2016-Feb-08 17:33N 51°53' E 004°25'0 0.0
2016-Feb-08 16:33N 51°53' E 004°25'0 0.0
2016-Feb-08 15:33N 51°53' E 004°25'0 0.0
2016-Feb-08 14:33N 51°53' E 004°25'0 0.0
2016-Feb-08 13:33N 51°53' E 004°25'0 0.0
2016-Feb-08 12:33N 51°53' E 004°25'0 0.0
2016-Feb-08 11:33N 51°53' E 004°25'0 0.0
2016-Feb-08 10:33N 51°53' E 004°25'0 0.0
2016-Feb-08 09:33N 51°53' E 004°25'0 0.0
2016-Feb-08 08:33N 51°53' E 004°25'0 0.0
2016-Feb-08 07:33N 51°53' E 004°25'0 0.0
2016-Feb-08 06:33N 51°53' E 004°25'0 0.0
2016-Feb-08 05:33N 51°53' E 004°25'0 0.0
2016-Feb-08 04:33N 51°53' E 004°25'0 0.0
2016-Feb-08 03:33N 51°53' E 004°25'0 0.0
2016-Feb-08 02:33N 51°53' E 004°25'0 0.0
2016-Feb-08 01:33N 51°53' E 004°25'0 0.0
2016-Feb-08 00:33N 51°53' E 004°25'0 0.0
2016-Feb-07 23:33N 51°53' E 004°25'0 0.0
2016-Feb-07 22:33N 51°53' E 004°25'5 4.7
2016-Feb-07 21:33N 51°54' E 004°18'1010.4
2016-Feb-07 20:33N 51°59' E 004°03'1413.6
2016-Feb-07 19:33N 52°03' E 003°42'6018.5
2016-Feb-07 16:20N 52°36' E 002°21'1518.7
2016-Feb-07 15:33N 52°45' E 002°01'1818.0
2016-Feb-07 14:33N 52°56' E 001°37'1717.2
2016-Feb-07 13:33N 53°09' E 001°20'1717.0
2016-Feb-07 12:33N 53°24' E 001°05'3617.0
2016-Feb-07 10:24N 53°54' E 000°29'1517.5
2016-Feb-07 09:34N 54°04' E 000°12'1717.3
2016-Feb-07 08:33N 54°17' W 000°08'1817.6
2016-Feb-07 07:33N 54°30' W 000°28'1918.1
2016-Feb-07 06:31N 54°39' W 000°57'8 7.8
2016-Feb-07 05:33N 54°36' W 001°09'0 0.0
2016-Feb-07 04:33N 54°36' W 001°09'0 0.0
2016-Feb-07 03:33N 54°36' W 001°09'0 0.0
2016-Feb-07 02:33N 54°36' W 001°09'0 0.0
2016-Feb-07 01:33N 54°36' W 001°09'0 0.0
2016-Feb-07 00:33N 54°36' W 001°09'0 0.0
2016-Feb-06 23:33N 54°36' W 001°09'0 0.0
2016-Feb-06 22:33N 54°36' W 001°09'0 0.0
2016-Feb-06 21:33N 54°36' W 001°09'0 0.0
2016-Feb-06 20:33N 54°36' W 001°09'0 0.0
2016-Feb-06 19:33N 54°36' W 001°09'0 0.0
2016-Feb-06 18:31N 54°36' W 001°09'0 0.0
2016-Feb-06 17:33N 54°36' W 001°09'0 0.0
2016-Feb-06 16:32N 54°36' W 001°09'0 0.0
2016-Feb-06 15:33N 54°36' W 001°09'0 0.0
2016-Feb-06 14:33N 54°36' W 001°09'0 0.1
2016-Feb-06 13:33N 54°36' W 001°09'1010.0
2016-Feb-06 12:33N 54°44' W 000°58'1818.4
2016-Feb-06 11:33N 54°52' W 000°29'40217.3
2016-Feb-05 12:20N 57°47' E 010°22'1417.6
2016-Feb-05 11:33N 57°48' E 010°48'1918.8
2016-Feb-05 10:33N 57°35' E 011°13'1818.5
2016-Feb-05 09:33N 57°20' E 011°32'1818.4
2016-Feb-05 08:33N 57°02' E 011°43'1818.2
2016-Feb-05 07:33N 56°45' E 011°54'8916.6
2016-Feb-05 02:13N 55°21' E 011°02'1116.2
2016-Feb-05 01:33N 55°11' E 011°04'1616.5
2016-Feb-05 00:33N 54°55' E 010°54'1414.5
2016-Feb-04 23:33N 54°41' E 010°57'1717.4
2016-Feb-04 22:33N 54°33' E 011°23'1717.2
2016-Feb-04 21:33N 54°26' E 011°51'1514.9
2016-Feb-04 20:33N 54°33' E 012°13'5517.8
2016-Feb-04 17:28N 54°59' E 013°37'1718.3
2016-Feb-04 16:33N 55°05' E 014°04'1817.9
2016-Feb-04 15:33N 55°18' E 014°26'1717.5
2016-Feb-04 14:33N 55°28' E 014°51'1817.9
2016-Feb-04 13:33N 55°28' E 015°23'  

Dump ship's entire track history